sensor_id;sensor_type;location;lat;lon;timestamp;temperature;humidity
27540;DHT22;15906;52.046;4.724;2024-02-14T00:01:31;8.90;99.90
27540;DHT22;15906;52.046;4.724;2024-02-14T00:03:56;8.90;99.90
27540;DHT22;15906;52.046;4.724;2024-02-14T00:06:22;9.00;99.90
27540;DHT22;15906;52.046;4.724;2024-02-14T00:08:49;8.90;99.90
27540;DHT22;15906;52.046;4.724;2024-02-14T00:11:14;9.00;99.90
27540;DHT22;15906;52.046;4.724;2024-02-14T00:13:40;9.00;99.90
27540;DHT22;15906;52.046;4.724;2024-02-14T00:16:06;9.00;99.90
27540;DHT22;15906;52.046;4.724;2024-02-14T00:18:32;9.00;99.90
27540;DHT22;15906;52.046;4.724;2024-02-14T00:20:57;9.10;99.90
27540;DHT22;15906;52.046;4.724;2024-02-14T00:23:23;9.10;99.90
27540;DHT22;15906;52.046;4.724;2024-02-14T00:25:48;9.10;99.90
27540;DHT22;15906;52.046;4.724;2024-02-14T00:28:14;9.10;99.90
27540;DHT22;15906;52.046;4.724;2024-02-14T00:30:39;9.10;99.90
27540;DHT22;15906;52.046;4.724;2024-02-14T00:33:05;9.10;99.90
27540;DHT22;15906;52.046;4.724;2024-02-14T00:35:30;9.10;99.90
27540;DHT22;15906;52.046;4.724;2024-02-14T00:37:56;9.20;99.90
27540;DHT22;15906;52.046;4.724;2024-02-14T00:40:22;9.20;99.90
27540;DHT22;15906;52.046;4.724;2024-02-14T00:42:48;9.20;99.90
27540;DHT22;15906;52.046;4.724;2024-02-14T00:45:13;9.20;99.90
27540;DHT22;15906;52.046;4.724;2024-02-14T00:47:39;9.20;99.90
27540;DHT22;15906;52.046;4.724;2024-02-14T00:50:05;9.30;99.90
27540;DHT22;15906;52.046;4.724;2024-02-14T00:52:30;9.30;99.90
27540;DHT22;15906;52.046;4.724;2024-02-14T00:54:56;9.30;99.90
27540;DHT22;15906;52.046;4.724;2024-02-14T00:57:22;9.40;99.90
27540;DHT22;15906;52.046;4.724;2024-02-14T00:59:52;9.30;99.90
27540;DHT22;15906;52.046;4.724;2024-02-14T01:02:17;9.30;99.90
27540;DHT22;15906;52.046;4.724;2024-02-14T01:04:43;9.30;99.90
27540;DHT22;15906;52.046;4.724;2024-02-14T01:07:09;9.30;99.90
27540;DHT22;15906;52.046;4.724;2024-02-14T01:09:35;9.30;99.90
27540;DHT22;15906;52.046;4.724;2024-02-14T01:12:01;9.30;99.90
27540;DHT22;15906;52.046;4.724;2024-02-14T01:14:27;9.30;99.90
27540;DHT22;15906;52.046;4.724;2024-02-14T01:16:53;9.30;99.90
27540;DHT22;15906;52.046;4.724;2024-02-14T01:19:19;9.30;99.90
27540;DHT22;15906;52.046;4.724;2024-02-14T01:21:45;9.30;99.90
27540;DHT22;15906;52.046;4.724;2024-02-14T01:24:14;9.40;99.90
27540;DHT22;15906;52.046;4.724;2024-02-14T01:26:39;9.40;99.90
27540;DHT22;15906;52.046;4.724;2024-02-14T01:29:06;9.40;99.90
27540;DHT22;15906;52.046;4.724;2024-02-14T01:31:32;9.40;99.90
27540;DHT22;15906;52.046;4.724;2024-02-14T01:33:58;9.50;99.90
27540;DHT22;15906;52.046;4.724;2024-02-14T01:36:28;9.50;99.90
27540;DHT22;15906;52.046;4.724;2024-02-14T01:38:53;9.50;99.90
27540;DHT22;15906;52.046;4.724;2024-02-14T01:41:19;9.50;99.90
27540;DHT22;15906;52.046;4.724;2024-02-14T01:43:46;9.50;99.90
27540;DHT22;15906;52.046;4.724;2024-02-14T01:46:12;9.50;99.90
27540;DHT22;15906;52.046;4.724;2024-02-14T01:48:38;9.50;99.90
27540;DHT22;15906;52.046;4.724;2024-02-14T01:51:05;9.50;99.90
27540;DHT22;15906;52.046;4.724;2024-02-14T01:53:32;9.50;99.90
27540;DHT22;15906;52.046;4.724;2024-02-14T01:55:59;9.60;99.90
27540;DHT22;15906;52.046;4.724;2024-02-14T01:58:25;9.50;99.90
27540;DHT22;15906;52.046;4.724;2024-02-14T02:00:51;9.50;99.90
27540;DHT22;15906;52.046;4.724;2024-02-14T02:03:23;9.50;99.90
27540;DHT22;15906;52.046;4.724;2024-02-14T02:05:49;9.50;99.90
27540;DHT22;15906;52.046;4.724;2024-02-14T02:08:14;9.50;99.90
27540;DHT22;15906;52.046;4.724;2024-02-14T02:10:40;9.60;99.90
27540;DHT22;15906;52.046;4.724;2024-02-14T02:13:06;9.50;99.90
27540;DHT22;15906;52.046;4.724;2024-02-14T02:15:31;9.50;99.90
27540;DHT22;15906;52.046;4.724;2024-02-14T02:17:57;9.50;99.90
27540;DHT22;15906;52.046;4.724;2024-02-14T02:20:22;9.50;99.90
27540;DHT22;15906;52.046;4.724;2024-02-14T02:22:48;9.60;99.90
27540;DHT22;15906;52.046;4.724;2024-02-14T02:25:14;9.60;99.90
27540;DHT22;15906;52.046;4.724;2024-02-14T02:27:39;9.60;99.90
27540;DHT22;15906;52.046;4.724;2024-02-14T02:30:06;9.60;99.90
27540;DHT22;15906;52.046;4.724;2024-02-14T02:32:32;9.60;99.90
27540;DHT22;15906;52.046;4.724;2024-02-14T02:34:58;9.60;99.90
27540;DHT22;15906;52.046;4.724;2024-02-14T02:37:25;9.60;99.90
27540;DHT22;15906;52.046;4.724;2024-02-14T02:39:50;9.60;99.90
27540;DHT22;15906;52.046;4.724;2024-02-14T02:42:16;9.70;99.90
27540;DHT22;15906;52.046;4.724;2024-02-14T02:44:46;9.70;99.90
27540;DHT22;15906;52.046;4.724;2024-02-14T02:47:12;9.70;99.90
27540;DHT22;15906;52.046;4.724;2024-02-14T02:49:38;9.70;99.90
27540;DHT22;15906;52.046;4.724;2024-02-14T02:52:03;9.70;99.90
27540;DHT22;15906;52.046;4.724;2024-02-14T02:54:29;9.80;99.90
27540;DHT22;15906;52.046;4.724;2024-02-14T02:56:55;9.70;99.90
27540;DHT22;15906;52.046;4.724;2024-02-14T02:59:20;9.80;99.90
27540;DHT22;15906;52.046;4.724;2024-02-14T03:01:47;9.90;99.90
27540;DHT22;15906;52.046;4.724;2024-02-14T03:04:15;9.90;99.90
27540;DHT22;15906;52.046;4.724;2024-02-14T03:06:40;9.90;99.90
27540;DHT22;15906;52.046;4.724;2024-02-14T03:09:08;9.90;99.90
27540;DHT22;15906;52.046;4.724;2024-02-14T03:11:34;9.90;99.90
27540;DHT22;15906;52.046;4.724;2024-02-14T03:14:01;9.90;99.90
27540;DHT22;15906;52.046;4.724;2024-02-14T03:16:27;10.00;99.90
27540;DHT22;15906;52.046;4.724;2024-02-14T03:18:52;10.00;99.90
27540;DHT22;15906;52.046;4.724;2024-02-14T03:21:19;10.00;99.90
27540;DHT22;15906;52.046;4.724;2024-02-14T03:23:45;10.00;99.90
27540;DHT22;15906;52.046;4.724;2024-02-14T03:26:11;10.10;99.90
27540;DHT22;15906;52.046;4.724;2024-02-14T03:28:36;10.10;99.90
27540;DHT22;15906;52.046;4.724;2024-02-14T03:31:02;10.10;99.90
27540;DHT22;15906;52.046;4.724;2024-02-14T03:33:28;10.10;99.90
27540;DHT22;15906;52.046;4.724;2024-02-14T03:35:54;10.10;99.90
27540;DHT22;15906;52.046;4.724;2024-02-14T03:38:29;10.10;99.90
27540;DHT22;15906;52.046;4.724;2024-02-14T03:40:56;10.10;99.90
27540;DHT22;15906;52.046;4.724;2024-02-14T03:43:22;10.10;99.90
27540;DHT22;15906;52.046;4.724;2024-02-14T03:45:49;10.20;99.90
27540;DHT22;15906;52.046;4.724;2024-02-14T03:48:15;10.20;99.90
27540;DHT22;15906;52.046;4.724;2024-02-14T03:50:41;10.20;99.90
27540;DHT22;15906;52.046;4.724;2024-02-14T03:53:08;10.20;99.90
27540;DHT22;15906;52.046;4.724;2024-02-14T03:55:36;10.30;99.90
27540;DHT22;15906;52.046;4.724;2024-02-14T03:58:02;10.30;99.90
27540;DHT22;15906;52.046;4.724;2024-02-14T04:00:29;10.30;99.90
27540;DHT22;15906;52.046;4.724;2024-02-14T04:02:55;10.30;99.90
27540;DHT22;15906;52.046;4.724;2024-02-14T04:05:24;10.30;99.90
27540;DHT22;15906;52.046;4.724;2024-02-14T04:07:50;10.30;99.90
27540;DHT22;15906;52.046;4.724;2024-02-14T04:10:17;10.30;99.90
27540;DHT22;15906;52.046;4.724;2024-02-14T04:12:43;10.30;99.90
27540;DHT22;15906;52.046;4.724;2024-02-14T04:15:09;10.30;99.90
27540;DHT22;15906;52.046;4.724;2024-02-14T04:17:35;10.40;99.90
27540;DHT22;15906;52.046;4.724;2024-02-14T04:20:00;10.40;99.90
27540;DHT22;15906;52.046;4.724;2024-02-14T04:22:26;10.40;99.90
27540;DHT22;15906;52.046;4.724;2024-02-14T04:24:51;10.40;99.90
27540;DHT22;15906;52.046;4.724;2024-02-14T04:27:17;10.40;99.90
27540;DHT22;15906;52.046;4.724;2024-02-14T04:29:46;10.50;99.90
27540;DHT22;15906;52.046;4.724;2024-02-14T04:32:12;10.40;99.90
27540;DHT22;15906;52.046;4.724;2024-02-14T04:34:38;10.50;99.90
27540;DHT22;15906;52.046;4.724;2024-02-14T04:37:05;10.50;99.90
27540;DHT22;15906;52.046;4.724;2024-02-14T04:39:35;10.50;99.90
27540;DHT22;15906;52.046;4.724;2024-02-14T04:42:01;10.50;99.90
27540;DHT22;15906;52.046;4.724;2024-02-14T04:44:28;10.50;99.90
27540;DHT22;15906;52.046;4.724;2024-02-14T04:46:54;10.50;99.90
27540;DHT22;15906;52.046;4.724;2024-02-14T04:49:19;10.50;99.90
27540;DHT22;15906;52.046;4.724;2024-02-14T04:51:45;10.60;99.90
27540;DHT22;15906;52.046;4.724;2024-02-14T04:54:10;10.50;99.90
27540;DHT22;15906;52.046;4.724;2024-02-14T04:56:36;10.60;99.90
27540;DHT22;15906;52.046;4.724;2024-02-14T04:59:02;10.50;99.90
27540;DHT22;15906;52.046;4.724;2024-02-14T05:01:28;10.60;99.90
27540;DHT22;15906;52.046;4.724;2024-02-14T05:03:53;10.60;99.90
27540;DHT22;15906;52.046;4.724;2024-02-14T05:06:19;10.60;99.90
27540;DHT22;15906;52.046;4.724;2024-02-14T05:08:45;10.60;99.90
27540;DHT22;15906;52.046;4.724;2024-02-14T05:11:10;10.60;99.90
27540;DHT22;15906;52.046;4.724;2024-02-14T05:13:36;10.60;99.90
27540;DHT22;15906;52.046;4.724;2024-02-14T05:16:04;10.50;99.90
27540;DHT22;15906;52.046;4.724;2024-02-14T05:18:30;10.50;99.90
27540;DHT22;15906;52.046;4.724;2024-02-14T05:20:55;10.60;99.90
27540;DHT22;15906;52.046;4.724;2024-02-14T05:23:21;10.60;99.90
27540;DHT22;15906;52.046;4.724;2024-02-14T05:25:47;10.60;99.90
27540;DHT22;15906;52.046;4.724;2024-02-14T05:28:13;10.70;99.90
27540;DHT22;15906;52.046;4.724;2024-02-14T05:30:40;10.60;99.90
27540;DHT22;15906;52.046;4.724;2024-02-14T05:35:32;10.60;99.90
27540;DHT22;15906;52.046;4.724;2024-02-14T05:37:57;10.60;99.90
27540;DHT22;15906;52.046;4.724;2024-02-14T05:40:23;10.60;99.90
27540;DHT22;15906;52.046;4.724;2024-02-14T05:42:49;10.70;99.90
27540;DHT22;15906;52.046;4.724;2024-02-14T05:45:15;10.70;99.90
27540;DHT22;15906;52.046;4.724;2024-02-14T05:47:40;10.70;99.90
27540;DHT22;15906;52.046;4.724;2024-02-14T05:50:07;10.70;99.90
27540;DHT22;15906;52.046;4.724;2024-02-14T05:52:34;10.60;99.90
27540;DHT22;15906;52.046;4.724;2024-02-14T05:54:59;10.60;99.90
27540;DHT22;15906;52.046;4.724;2024-02-14T05:57:25;10.70;99.90
27540;DHT22;15906;52.046;4.724;2024-02-14T05:59:51;10.70;99.90
27540;DHT22;15906;52.046;4.724;2024-02-14T06:02:16;10.70;99.90
27540;DHT22;15906;52.046;4.724;2024-02-14T06:04:42;10.70;99.90
27540;DHT22;15906;52.046;4.724;2024-02-14T06:07:08;10.70;99.90
27540;DHT22;15906;52.046;4.724;2024-02-14T06:09:35;10.70;99.90
27540;DHT22;15906;52.046;4.724;2024-02-14T06:12:01;10.70;99.90
27540;DHT22;15906;52.046;4.724;2024-02-14T06:14:26;10.70;99.90
27540;DHT22;15906;52.046;4.724;2024-02-14T06:16:52;10.70;99.90
27540;DHT22;15906;52.046;4.724;2024-02-14T06:19:17;10.70;99.90
27540;DHT22;15906;52.046;4.724;2024-02-14T06:21:43;10.70;99.90
27540;DHT22;15906;52.046;4.724;2024-02-14T06:24:08;10.70;99.90
27540;DHT22;15906;52.046;4.724;2024-02-14T06:26:35;10.60;99.90
27540;DHT22;15906;52.046;4.724;2024-02-14T06:29:01;10.80;99.90
27540;DHT22;15906;52.046;4.724;2024-02-14T06:31:27;10.70;99.90
27540;DHT22;15906;52.046;4.724;2024-02-14T06:33:53;10.70;99.90
27540;DHT22;15906;52.046;4.724;2024-02-14T06:36:18;10.70;99.90
27540;DHT22;15906;52.046;4.724;2024-02-14T06:38:44;10.70;99.90
27540;DHT22;15906;52.046;4.724;2024-02-14T06:41:12;10.80;99.90
27540;DHT22;15906;52.046;4.724;2024-02-14T06:43:37;10.70;99.90
27540;DHT22;15906;52.046;4.724;2024-02-14T06:46:05;10.70;99.90
27540;DHT22;15906;52.046;4.724;2024-02-14T06:48:31;10.80;99.90
27540;DHT22;15906;52.046;4.724;2024-02-14T06:50:56;10.80;99.90
27540;DHT22;15906;52.046;4.724;2024-02-14T06:53:22;10.80;99.90
27540;DHT22;15906;52.046;4.724;2024-02-14T06:55:47;10.80;99.90
27540;DHT22;15906;52.046;4.724;2024-02-14T06:58:13;10.70;99.90
27540;DHT22;15906;52.046;4.724;2024-02-14T07:00:39;10.80;99.90
27540;DHT22;15906;52.046;4.724;2024-02-14T07:03:05;10.80;99.90
27540;DHT22;15906;52.046;4.724;2024-02-14T07:05:30;10.80;99.90
27540;DHT22;15906;52.046;4.724;2024-02-14T07:07:56;10.80;99.90
27540;DHT22;15906;52.046;4.724;2024-02-14T07:10:22;10.90;99.90
27540;DHT22;15906;52.046;4.724;2024-02-14T07:12:47;10.80;99.90
27540;DHT22;15906;52.046;4.724;2024-02-14T07:15:13;10.90;99.90
27540;DHT22;15906;52.046;4.724;2024-02-14T07:17:39;10.90;99.90
27540;DHT22;15906;52.046;4.724;2024-02-14T07:20:05;10.90;99.90
27540;DHT22;15906;52.046;4.724;2024-02-14T07:22:34;10.80;99.90
27540;DHT22;15906;52.046;4.724;2024-02-14T07:24:59;10.80;99.90
27540;DHT22;15906;52.046;4.724;2024-02-14T07:27:25;10.90;99.90
27540;DHT22;15906;52.046;4.724;2024-02-14T07:29:51;10.80;99.90
27540;DHT22;15906;52.046;4.724;2024-02-14T07:32:17;10.90;99.90
27540;DHT22;15906;52.046;4.724;2024-02-14T07:34:42;10.80;99.90
27540;DHT22;15906;52.046;4.724;2024-02-14T07:37:08;10.90;99.90
27540;DHT22;15906;52.046;4.724;2024-02-14T07:39:34;10.80;99.90
27540;DHT22;15906;52.046;4.724;2024-02-14T07:42:03;10.90;99.90
27540;DHT22;15906;52.046;4.724;2024-02-14T07:44:28;10.90;99.90
27540;DHT22;15906;52.046;4.724;2024-02-14T07:46:54;10.90;99.90
27540;DHT22;15906;52.046;4.724;2024-02-14T07:49:19;10.90;99.90
27540;DHT22;15906;52.046;4.724;2024-02-14T07:51:46;10.90;99.90
27540;DHT22;15906;52.046;4.724;2024-02-14T07:54:11;10.80;99.90
27540;DHT22;15906;52.046;4.724;2024-02-14T07:56:37;11.00;99.90
27540;DHT22;15906;52.046;4.724;2024-02-14T07:59:02;11.00;99.90
27540;DHT22;15906;52.046;4.724;2024-02-14T08:01:29;11.00;99.90
27540;DHT22;15906;52.046;4.724;2024-02-14T08:03:55;11.00;99.90
27540;DHT22;15906;52.046;4.724;2024-02-14T08:06:20;11.00;99.90
27540;DHT22;15906;52.046;4.724;2024-02-14T08:08:46;11.00;99.90
27540;DHT22;15906;52.046;4.724;2024-02-14T08:11:14;11.00;99.90
27540;DHT22;15906;52.046;4.724;2024-02-14T08:13:39;10.90;99.90
27540;DHT22;15906;52.046;4.724;2024-02-14T08:16:06;10.90;99.90
27540;DHT22;15906;52.046;4.724;2024-02-14T08:18:32;10.90;99.90
27540;DHT22;15906;52.046;4.724;2024-02-14T08:20:58;11.00;99.90
27540;DHT22;15906;52.046;4.724;2024-02-14T08:23:23;11.00;99.90
27540;DHT22;15906;52.046;4.724;2024-02-14T08:25:49;10.90;99.90
27540;DHT22;15906;52.046;4.724;2024-02-14T08:28:15;10.90;99.90
27540;DHT22;15906;52.046;4.724;2024-02-14T08:30:40;10.90;99.90
27540;DHT22;15906;52.046;4.724;2024-02-14T08:35:32;10.90;99.90
27540;DHT22;15906;52.046;4.724;2024-02-14T08:37:59;10.90;99.90
27540;DHT22;15906;52.046;4.724;2024-02-14T08:40:24;10.90;99.90
27540;DHT22;15906;52.046;4.724;2024-02-14T08:42:50;11.00;99.90
27540;DHT22;15906;52.046;4.724;2024-02-14T08:45:15;10.90;99.90
27540;DHT22;15906;52.046;4.724;2024-02-14T08:47:44;10.90;99.90
27540;DHT22;15906;52.046;4.724;2024-02-14T08:50:09;10.90;99.90
27540;DHT22;15906;52.046;4.724;2024-02-14T08:52:35;11.00;99.90
27540;DHT22;15906;52.046;4.724;2024-02-14T08:55:03;10.90;99.90
27540;DHT22;15906;52.046;4.724;2024-02-14T08:57:29;11.00;99.90
27540;DHT22;15906;52.046;4.724;2024-02-14T08:59:56;11.00;99.90
27540;DHT22;15906;52.046;4.724;2024-02-14T09:02:22;10.90;99.90
27540;DHT22;15906;52.046;4.724;2024-02-14T09:04:48;10.90;99.90
27540;DHT22;15906;52.046;4.724;2024-02-14T09:07:13;10.90;99.90
27540;DHT22;15906;52.046;4.724;2024-02-14T09:09:39;11.00;99.90
27540;DHT22;15906;52.046;4.724;2024-02-14T09:12:05;11.00;99.90
27540;DHT22;15906;52.046;4.724;2024-02-14T09:14:31;11.00;99.90
27540;DHT22;15906;52.046;4.724;2024-02-14T09:16:57;11.00;99.90
27540;DHT22;15906;52.046;4.724;2024-02-14T09:19:23;11.00;99.90
27540;DHT22;15906;52.046;4.724;2024-02-14T09:21:49;11.00;99.90
27540;DHT22;15906;52.046;4.724;2024-02-14T09:24:14;11.00;99.90
27540;DHT22;15906;52.046;4.724;2024-02-14T09:26:40;11.10;99.90
27540;DHT22;15906;52.046;4.724;2024-02-14T09:29:05;11.10;99.90
27540;DHT22;15906;52.046;4.724;2024-02-14T09:31:31;11.10;99.90
27540;DHT22;15906;52.046;4.724;2024-02-14T09:33:56;11.20;99.90
27540;DHT22;15906;52.046;4.724;2024-02-14T09:36:23;11.20;99.90
27540;DHT22;15906;52.046;4.724;2024-02-14T09:38:50;11.20;99.90
27540;DHT22;15906;52.046;4.724;2024-02-14T09:41:42;11.30;99.90
27540;DHT22;15906;52.046;4.724;2024-02-14T09:44:09;11.20;99.90
27540;DHT22;15906;52.046;4.724;2024-02-14T09:46:38;11.20;99.90
27540;DHT22;15906;52.046;4.724;2024-02-14T09:49:03;11.30;99.90
27540;DHT22;15906;52.046;4.724;2024-02-14T09:51:31;11.40;99.90
27540;DHT22;15906;52.046;4.724;2024-02-14T09:54:00;11.30;99.90
27540;DHT22;15906;52.046;4.724;2024-02-14T09:56:25;11.30;99.90
27540;DHT22;15906;52.046;4.724;2024-02-14T09:58:53;11.30;99.90
27540;DHT22;15906;52.046;4.724;2024-02-14T10:01:22;11.30;99.90
27540;DHT22;15906;52.046;4.724;2024-02-14T10:03:53;11.30;99.90
27540;DHT22;15906;52.046;4.724;2024-02-14T10:06:19;11.40;99.90
27540;DHT22;15906;52.046;4.724;2024-02-14T10:08:49;11.40;99.90
27540;DHT22;15906;52.046;4.724;2024-02-14T10:11:17;11.40;99.90
27540;DHT22;15906;52.046;4.724;2024-02-14T10:13:44;11.30;99.90
27540;DHT22;15906;52.046;4.724;2024-02-14T10:16:11;11.40;99.90
27540;DHT22;15906;52.046;4.724;2024-02-14T10:18:38;11.40;99.90
27540;DHT22;15906;52.046;4.724;2024-02-14T10:21:04;11.40;99.90
27540;DHT22;15906;52.046;4.724;2024-02-14T10:23:30;11.40;99.90
27540;DHT22;15906;52.046;4.724;2024-02-14T10:25:56;11.50;99.90
27540;DHT22;15906;52.046;4.724;2024-02-14T10:28:22;11.50;99.90
27540;DHT22;15906;52.046;4.724;2024-02-14T10:30:49;11.60;99.90
27540;DHT22;15906;52.046;4.724;2024-02-14T10:33:17;11.50;99.90
27540;DHT22;15906;52.046;4.724;2024-02-14T10:35:44;11.50;99.90
27540;DHT22;15906;52.046;4.724;2024-02-14T10:38:11;11.60;99.90
27540;DHT22;15906;52.046;4.724;2024-02-14T10:40:37;11.60;99.90
27540;DHT22;15906;52.046;4.724;2024-02-14T10:43:08;11.60;99.90
27540;DHT22;15906;52.046;4.724;2024-02-14T10:45:36;11.60;99.90
27540;DHT22;15906;52.046;4.724;2024-02-14T10:48:04;11.60;99.90
27540;DHT22;15906;52.046;4.724;2024-02-14T10:50:34;11.60;99.90
27540;DHT22;15906;52.046;4.724;2024-02-14T10:53:04;11.60;99.90
27540;DHT22;15906;52.046;4.724;2024-02-14T10:55:31;11.60;99.90
27540;DHT22;15906;52.046;4.724;2024-02-14T10:57:59;11.60;99.90
27540;DHT22;15906;52.046;4.724;2024-02-14T11:00:24;11.70;99.90
27540;DHT22;15906;52.046;4.724;2024-02-14T11:02:51;11.70;99.90
27540;DHT22;15906;52.046;4.724;2024-02-14T11:05:19;11.70;99.90
27540;DHT22;15906;52.046;4.724;2024-02-14T11:07:48;11.70;99.90
27540;DHT22;15906;52.046;4.724;2024-02-14T11:10:19;11.80;99.90
27540;DHT22;15906;52.046;4.724;2024-02-14T11:12:47;11.80;99.90
27540;DHT22;15906;52.046;4.724;2024-02-14T11:15:22;11.80;99.90
27540;DHT22;15906;52.046;4.724;2024-02-14T11:17:48;11.80;99.90
27540;DHT22;15906;52.046;4.724;2024-02-14T11:20:30;11.80;99.90
27540;DHT22;15906;52.046;4.724;2024-02-14T11:22:58;11.80;99.90
27540;DHT22;15906;52.046;4.724;2024-02-14T11:25:29;11.80;99.90
27540;DHT22;15906;52.046;4.724;2024-02-14T11:27:57;11.80;99.90
27540;DHT22;15906;52.046;4.724;2024-02-14T11:30:34;11.80;99.90
27540;DHT22;15906;52.046;4.724;2024-02-14T11:35:43;11.90;99.90
27540;DHT22;15906;52.046;4.724;2024-02-14T11:38:09;11.80;99.90
27540;DHT22;15906;52.046;4.724;2024-02-14T11:40:35;11.90;99.90
27540;DHT22;15906;52.046;4.724;2024-02-14T11:43:01;11.90;99.90
27540;DHT22;15906;52.046;4.724;2024-02-14T11:45:29;11.80;99.90
27540;DHT22;15906;52.046;4.724;2024-02-14T11:47:55;11.90;99.90
27540;DHT22;15906;52.046;4.724;2024-02-14T11:50:21;11.80;99.90
27540;DHT22;15906;52.046;4.724;2024-02-14T11:52:46;11.80;99.90
27540;DHT22;15906;52.046;4.724;2024-02-14T11:55:12;11.80;99.90
27540;DHT22;15906;52.046;4.724;2024-02-14T11:57:41;11.80;99.90
27540;DHT22;15906;52.046;4.724;2024-02-14T12:00:08;11.90;99.90
27540;DHT22;15906;52.046;4.724;2024-02-14T12:02:33;11.80;99.90
27540;DHT22;15906;52.046;4.724;2024-02-14T12:04:59;11.80;99.90
27540;DHT22;15906;52.046;4.724;2024-02-14T12:07:25;11.80;99.90
27540;DHT22;15906;52.046;4.724;2024-02-14T12:09:51;11.80;99.90
27540;DHT22;15906;52.046;4.724;2024-02-14T12:12:17;11.90;99.90
27540;DHT22;15906;52.046;4.724;2024-02-14T12:14:45;11.80;99.90
27540;DHT22;15906;52.046;4.724;2024-02-14T12:17:16;11.90;99.90
27540;DHT22;15906;52.046;4.724;2024-02-14T12:19:44;11.90;99.90
27540;DHT22;15906;52.046;4.724;2024-02-14T12:22:10;11.90;99.90
27540;DHT22;15906;52.046;4.724;2024-02-14T12:24:45;11.90;99.90
27540;DHT22;15906;52.046;4.724;2024-02-14T12:27:12;12.00;99.90
27540;DHT22;15906;52.046;4.724;2024-02-14T12:29:37;11.90;99.90
27540;DHT22;15906;52.046;4.724;2024-02-14T12:32:07;11.90;99.90
27540;DHT22;15906;52.046;4.724;2024-02-14T12:34:33;12.00;99.90
27540;DHT22;15906;52.046;4.724;2024-02-14T12:36:59;11.90;99.90
27540;DHT22;15906;52.046;4.724;2024-02-14T12:39:29;11.90;99.90
27540;DHT22;15906;52.046;4.724;2024-02-14T12:41:55;12.00;99.90
27540;DHT22;15906;52.046;4.724;2024-02-14T12:44:21;11.90;99.90
27540;DHT22;15906;52.046;4.724;2024-02-14T12:46:46;11.90;99.90
27540;DHT22;15906;52.046;4.724;2024-02-14T12:49:12;12.00;99.90
27540;DHT22;15906;52.046;4.724;2024-02-14T12:51:37;12.00;99.90
27540;DHT22;15906;52.046;4.724;2024-02-14T12:54:04;12.00;99.90
27540;DHT22;15906;52.046;4.724;2024-02-14T12:56:31;12.00;99.90
27540;DHT22;15906;52.046;4.724;2024-02-14T12:58:57;12.00;99.90
27540;DHT22;15906;52.046;4.724;2024-02-14T13:01:22;12.00;99.90
27540;DHT22;15906;52.046;4.724;2024-02-14T13:03:48;12.00;99.90
27540;DHT22;15906;52.046;4.724;2024-02-14T13:06:13;12.00;99.90
27540;DHT22;15906;52.046;4.724;2024-02-14T13:08:39;12.00;99.90
27540;DHT22;15906;52.046;4.724;2024-02-14T13:11:05;12.00;99.90
27540;DHT22;15906;52.046;4.724;2024-02-14T13:13:30;12.10;99.90
27540;DHT22;15906;52.046;4.724;2024-02-14T13:15:56;12.10;99.90
27540;DHT22;15906;52.046;4.724;2024-02-14T13:18:22;12.10;99.90
27540;DHT22;15906;52.046;4.724;2024-02-14T13:20:47;12.10;99.90
27540;DHT22;15906;52.046;4.724;2024-02-14T13:23:13;12.10;99.90
27540;DHT22;15906;52.046;4.724;2024-02-14T13:25:39;12.10;99.90
27540;DHT22;15906;52.046;4.724;2024-02-14T13:28:05;12.10;99.90
27540;DHT22;15906;52.046;4.724;2024-02-14T13:30:32;12.10;99.90
27540;DHT22;15906;52.046;4.724;2024-02-14T13:32:58;12.10;99.90
27540;DHT22;15906;52.046;4.724;2024-02-14T13:35:24;12.10;99.90
27540;DHT22;15906;52.046;4.724;2024-02-14T13:37:49;12.10;99.90
27540;DHT22;15906;52.046;4.724;2024-02-14T13:40:15;12.20;99.90
27540;DHT22;15906;52.046;4.724;2024-02-14T13:42:41;12.20;99.90
27540;DHT22;15906;52.046;4.724;2024-02-14T13:45:07;12.20;99.90
27540;DHT22;15906;52.046;4.724;2024-02-14T13:47:40;12.30;99.90
27540;DHT22;15906;52.046;4.724;2024-02-14T13:50:08;12.30;99.90
27540;DHT22;15906;52.046;4.724;2024-02-14T13:52:33;12.30;99.90
27540;DHT22;15906;52.046;4.724;2024-02-14T13:55:00;12.30;99.90
27540;DHT22;15906;52.046;4.724;2024-02-14T13:57:28;12.30;99.90
27540;DHT22;15906;52.046;4.724;2024-02-14T13:59:54;12.30;99.90
27540;DHT22;15906;52.046;4.724;2024-02-14T14:02:20;12.40;99.90
27540;DHT22;15906;52.046;4.724;2024-02-14T14:04:46;12.40;99.90
27540;DHT22;15906;52.046;4.724;2024-02-14T14:07:11;12.40;99.90
27540;DHT22;15906;52.046;4.724;2024-02-14T14:09:37;12.40;99.90
27540;DHT22;15906;52.046;4.724;2024-02-14T14:12:02;12.40;99.90
27540;DHT22;15906;52.046;4.724;2024-02-14T14:14:28;12.40;99.90
27540;DHT22;15906;52.046;4.724;2024-02-14T14:16:55;12.50;99.90
27540;DHT22;15906;52.046;4.724;2024-02-14T14:19:20;12.50;99.90
27540;DHT22;15906;52.046;4.724;2024-02-14T14:21:46;12.50;99.90
27540;DHT22;15906;52.046;4.724;2024-02-14T14:24:11;12.40;99.90
27540;DHT22;15906;52.046;4.724;2024-02-14T14:26:37;12.50;99.90
27540;DHT22;15906;52.046;4.724;2024-02-14T14:29:03;12.50;99.90
27540;DHT22;15906;52.046;4.724;2024-02-14T14:31:28;12.50;99.90
27540;DHT22;15906;52.046;4.724;2024-02-14T14:33:54;12.40;99.90
27540;DHT22;15906;52.046;4.724;2024-02-14T14:36:19;12.50;99.90
27540;DHT22;15906;52.046;4.724;2024-02-14T14:38:45;12.40;99.90
27540;DHT22;15906;52.046;4.724;2024-02-14T14:41:12;12.40;99.90
27540;DHT22;15906;52.046;4.724;2024-02-14T14:43:37;12.50;99.90
27540;DHT22;15906;52.046;4.724;2024-02-14T14:46:04;12.50;99.90
27540;DHT22;15906;52.046;4.724;2024-02-14T14:48:30;12.50;99.90
27540;DHT22;15906;52.046;4.724;2024-02-14T14:50:55;12.40;99.90
27540;DHT22;15906;52.046;4.724;2024-02-14T14:53:21;12.50;99.90
27540;DHT22;15906;52.046;4.724;2024-02-14T14:55:53;12.50;99.90
27540;DHT22;15906;52.046;4.724;2024-02-14T14:58:21;12.40;99.90
27540;DHT22;15906;52.046;4.724;2024-02-14T15:00:48;12.50;99.90
27540;DHT22;15906;52.046;4.724;2024-02-14T15:03:13;12.40;99.90
27540;DHT22;15906;52.046;4.724;2024-02-14T15:05:39;12.40;99.90
27540;DHT22;15906;52.046;4.724;2024-02-14T15:08:06;12.40;99.90
27540;DHT22;15906;52.046;4.724;2024-02-14T15:10:35;12.40;99.90
27540;DHT22;15906;52.046;4.724;2024-02-14T15:13:04;12.40;99.90
27540;DHT22;15906;52.046;4.724;2024-02-14T15:15:31;12.40;99.90
27540;DHT22;15906;52.046;4.724;2024-02-14T15:17:56;12.40;99.90
27540;DHT22;15906;52.046;4.724;2024-02-14T15:20:22;12.50;99.90
27540;DHT22;15906;52.046;4.724;2024-02-14T15:22:47;12.40;99.90
27540;DHT22;15906;52.046;4.724;2024-02-14T15:25:13;12.50;99.90
27540;DHT22;15906;52.046;4.724;2024-02-14T15:27:39;12.50;99.90
27540;DHT22;15906;52.046;4.724;2024-02-14T15:30:09;12.40;99.90
27540;DHT22;15906;52.046;4.724;2024-02-14T15:32:54;12.40;99.90
27540;DHT22;15906;52.046;4.724;2024-02-14T15:35:38;12.40;99.90
27540;DHT22;15906;52.046;4.724;2024-02-14T15:38:03;12.40;99.90